createdAt,value
2019-03-08T00:00:20.246Z,98868.93
2019-03-08T00:02:49.270Z,98868.53
2019-03-08T00:05:18.639Z,98863.48
2019-03-08T00:07:47.235Z,98876.73
2019-03-08T00:10:15.946Z,98880.44
2019-03-08T00:12:44.789Z,98882.13
2019-03-08T00:15:14.255Z,98890.69
2019-03-08T00:17:42.852Z,98898.03
2019-03-08T00:20:11.618Z,98905.74
2019-03-08T00:22:40.368Z,98894.16
2019-03-08T00:25:11.907Z,98889.44
2019-03-08T00:27:40.533Z,98901.55
2019-03-08T00:30:11.221Z,98827.31
2019-03-08T00:32:39.836Z,98889.28
2019-03-08T00:35:09.631Z,98886.99
2019-03-08T00:37:38.254Z,98891.29
2019-03-08T00:40:09.792Z,98901.08
2019-03-08T00:42:38.415Z,98916.63
2019-03-08T00:45:09.991Z,98911.49
2019-03-08T00:47:38.696Z,98911.66
2019-03-08T00:50:08.916Z,98902.45
2019-03-08T00:52:37.606Z,98905.12
2019-03-08T00:55:08.395Z,98923.46
2019-03-08T00:57:37.024Z,98927.39
2019-03-08T01:00:19.917Z,98943.78
2019-03-08T01:02:48.715Z,98943.19
2019-03-08T01:05:18.111Z,98929.55
2019-03-08T01:07:46.901Z,98969.38
2019-03-08T01:10:17.862Z,98969.38
2019-03-08T01:12:46.726Z,98990.77
2019-03-08T01:15:18.170Z,98993.44
2019-03-08T01:17:46.863Z,99005.65
2019-03-08T01:20:19.822Z,99003.91
2019-03-08T01:22:48.402Z,98985.33
2019-03-08T01:25:17.551Z,99012.72
2019-03-08T01:28:04.019Z,99001.70
2019-03-08T01:30:33.815Z,98996.26
2019-03-08T01:33:02.436Z,99006.27
2019-03-08T01:35:31.201Z,99000.09
2019-03-08T01:37:59.717Z,99000.09
2019-03-08T01:40:28.332Z,99003.82
2019-03-08T01:42:56.950Z,99018.41
2019-03-08T01:45:25.571Z,99016.58
2019-03-08T01:47:54.188Z,99019.25
2019-03-08T01:50:22.873Z,99022.27
2019-03-08T01:52:51.470Z,99019.41
2019-03-08T01:55:20.068Z,99032.29
2019-03-08T01:57:48.761Z,99026.27
2019-03-08T02:00:21.517Z,99017.28
2019-03-08T02:02:50.217Z,99068.53
2019-03-08T02:05:19.877Z,99069.17
2019-03-08T02:07:48.490Z,99064.45
2019-03-08T02:10:17.378Z,99072.11
2019-03-08T02:12:45.894Z,99084.80
2019-03-08T02:15:18.716Z,99084.80
2019-03-08T02:17:47.309Z,99086.94
2019-03-08T02:20:21.250Z,99091.58
2019-03-08T02:22:49.867Z,99039.91
2019-03-08T02:25:18.454Z,99087.16
2019-03-08T02:27:47.233Z,99094.08
2019-03-08T02:30:17.528Z,99099.67
2019-03-08T02:32:46.320Z,99081.45
2019-03-08T02:35:19.442Z,99107.51
2019-03-08T02:37:48.080Z,99107.30
2019-03-08T02:40:33.943Z,99112.41
2019-03-08T02:43:04.491Z,99090.14
2019-03-08T02:45:33.184Z,99106.45
2019-03-08T02:48:01.778Z,99102.94
2019-03-08T02:50:30.366Z,99108.99
2019-03-08T02:52:59.050Z,99116.83
2019-03-08T02:55:27.580Z,99119.49
2019-03-08T02:57:56.333Z,99128.45
2019-03-08T03:00:27.829Z,99136.09
2019-03-08T03:02:56.417Z,99133.07
2019-03-08T03:05:24.933Z,99144.72
2019-03-08T03:07:53.517Z,99151.44
2019-03-08T03:10:22.291Z,99142.48
2019-03-08T03:12:50.877Z,99140.89
2019-03-08T03:15:19.552Z,99153.09
2019-03-08T03:17:48.146Z,99151.98
2019-03-08T03:20:17.739Z,99162.36
2019-03-08T03:22:46.261Z,99170.34
2019-03-08T03:25:15.828Z,99180.73
2019-03-08T03:27:44.431Z,99171.75
2019-03-08T03:30:18.091Z,99177.77
2019-03-08T03:32:46.672Z,99191.09
2019-03-08T03:35:15.290Z,99182.50
2019-03-08T03:37:43.884Z,99195.03
2019-03-08T03:40:19.389Z,99190.56
2019-03-08T03:42:47.970Z,99194.55
2019-03-08T03:45:19.235Z,99200.36
2019-03-08T03:47:47.824Z,99211.02
2019-03-08T03:50:18.413Z,99211.87
2019-03-08T03:52:46.750Z,99223.86
2019-03-08T03:55:17.682Z,99217.68
2019-03-08T03:57:46.380Z,99226.67
2019-03-08T04:00:20.095Z,99237.44
2019-03-08T04:02:48.666Z,99247.76
2019-03-08T04:05:17.298Z,99244.36
2019-03-08T04:07:45.898Z,99242.22
2019-03-08T04:10:16.292Z,99237.70
2019-03-08T04:12:44.931Z,99257.30
2019-03-08T04:15:21.135Z,99259.48
2019-03-08T04:17:49.807Z,99266.84
2019-03-08T04:20:19.499Z,99267.55
2019-03-08T04:22:48.106Z,99287.52
2019-03-08T04:25:16.979Z,99292.73
2019-03-08T04:27:45.563Z,99299.87
2019-03-08T04:30:18.348Z,99292.73
2019-03-08T04:32:46.937Z,99312.20
2019-03-08T04:35:15.561Z,99308.84
2019-03-08T04:37:44.305Z,99319.86
2019-03-08T04:40:13.928Z,99317.82
2019-03-08T04:42:42.516Z,99327.48
2019-03-08T04:45:12.858Z,99331.96
2019-03-08T04:47:41.484Z,99339.47
2019-03-08T04:50:11.875Z,99336.47
2019-03-08T04:52:40.497Z,99341.28
2019-03-08T04:55:17.325Z,99344.46
2019-03-08T04:57:47.017Z,99336.47
2019-03-08T05:00:17.140Z,99352.45
2019-03-08T05:02:45.755Z,99361.04
2019-03-08T05:05:14.441Z,99371.22
2019-03-08T05:07:43.043Z,99368.19
2019-03-08T05:10:14.239Z,99370.52
2019-03-08T05:12:43.044Z,99371.84
2019-03-08T05:15:11.830Z,99391.82
2019-03-08T05:17:40.404Z,99387.45
2019-03-08T05:20:10.104Z,99391.12
2019-03-08T05:22:39.741Z,99390.27
2019-03-08T05:25:10.140Z,99394.75
2019-03-08T05:27:38.735Z,99404.30
2019-03-08T05:30:12.660Z,99409.88
2019-03-08T05:32:41.255Z,99420.53
2019-03-08T05:35:10.776Z,99424.16
2019-03-08T05:37:39.368Z,99420.16
2019-03-08T05:40:12.985Z,99434.47
2019-03-08T05:42:41.502Z,99444.28
2019-03-08T05:45:11.502Z,99451.08
2019-03-08T05:47:40.226Z,99449.75
2019-03-08T05:50:10.144Z,99460.52
2019-03-08T05:52:38.761Z,99469.98
2019-03-08T05:55:11.789Z,99471.56
2019-03-08T05:57:40.440Z,99490.69
2019-03-08T06:00:11.539Z,99498.55
2019-03-08T06:02:40.400Z,99510.45
2019-03-08T06:05:09.397Z,99521.48
2019-03-08T06:07:38.327Z,99531.64
2019-03-08T06:10:31.125Z,99527.94
2019-03-08T06:13:00.847Z,99534.60
2019-03-08T06:15:29.538Z,99540.75
2019-03-08T06:17:58.445Z,99548.16
2019-03-08T06:20:27.037Z,99560.48
2019-03-08T06:22:55.636Z,99560.48
2019-03-08T06:25:24.262Z,99566.56
2019-03-08T06:27:52.849Z,99585.42
2019-03-08T06:30:21.595Z,99585.42
2019-03-08T06:32:50.460Z,99594.12
2019-03-08T06:35:18.979Z,99599.83
2019-03-08T06:37:47.704Z,99601.98
2019-03-08T06:40:16.298Z,99611.19
2019-03-08T06:42:44.949Z,99620.74
2019-03-08T06:45:16.769Z,99630.44
2019-03-08T06:47:45.940Z,99635.76
2019-03-08T06:50:15.647Z,99639.38
2019-03-08T06:52:44.265Z,99654.88
2019-03-08T06:55:17.290Z,99657.05
2019-03-08T06:57:45.908Z,99667.81
2019-03-08T07:00:26.602Z,99679.31
2019-03-08T07:02:55.082Z,99691.05
2019-03-08T07:05:23.681Z,99688.73
2019-03-08T07:07:52.275Z,99696.14
2019-03-08T07:10:20.877Z,99703.14
2019-03-08T07:12:49.607Z,99711.98
2019-03-08T07:15:18.482Z,99720.59
2019-03-08T07:17:47.105Z,99731.23
2019-03-08T07:20:20.089Z,99734.14
2019-03-08T07:22:50.360Z,99744.31
2019-03-08T07:25:36.724Z,99737.52
2019-03-08T07:28:12.957Z,99756.16
2019-03-08T07:30:57.739Z,99761.02
2019-03-08T07:33:24.143Z,99776.52
2019-03-08T07:35:57.578Z,99756.41
2019-03-08T07:38:27.810Z,99782.94
2019-03-08T07:40:58.053Z,99789.70
2019-03-08T07:43:34.549Z,99799.62
2019-03-08T07:46:07.710Z,99815.48
2019-03-08T07:48:43.775Z,99815.48
2019-03-08T07:51:16.722Z,99822.05
2019-03-08T07:53:49.640Z,99832.23
2019-03-08T07:56:37.748Z,99837.44
2019-03-08T07:59:14.172Z,99838.06
2019-03-08T08:01:44.335Z,99854.40
2019-03-08T08:04:26.668Z,99846.88
2019-03-08T08:06:56.929Z,99847.39
2019-03-08T08:09:29.799Z,99865.30
2019-03-08T08:12:16.203Z,99864.30
2019-03-08T08:14:46.658Z,99871.27
2019-03-08T08:17:26.124Z,99887.75
2019-03-08T08:19:56.369Z,99895.25
2019-03-08T08:22:26.684Z,99896.64
2019-03-08T08:25:13.301Z,99894.50
2019-03-08T08:28:00.014Z,99895.20
2019-03-08T08:30:46.677Z,99905.97
2019-03-08T08:33:19.914Z,99918.14
2019-03-08T08:35:50.089Z,99914.12
2019-03-08T08:38:20.485Z,99915.38
2019-03-08T08:40:56.506Z,99919.48
2019-03-08T08:43:29.716Z,99936.96
2019-03-08T08:45:59.962Z,99939.72
2019-03-08T08:48:47.900Z,99942.34
2019-03-08T08:51:24.396Z,99936.13
2019-03-08T08:54:12.760Z,99958.06
2019-03-08T08:56:51.770Z,99963.57
2019-03-08T08:59:38.052Z,99957.46
2019-03-08T09:02:23.300Z,99966.38
2019-03-08T09:04:53.473Z,99968.09
2019-03-08T09:07:26.561Z,99981.47
2019-03-08T09:10:05.970Z,99991.88
2019-03-08T09:12:41.819Z,99996.38
2019-03-08T09:15:28.704Z,100003.29
2019-03-08T09:18:14.069Z,99999.08
2019-03-08T09:21:00.313Z,99999.05
2019-03-08T09:23:33.249Z,100005.38
2019-03-08T09:26:09.243Z,100007.35
2019-03-08T09:28:55.543Z,100012.27
2019-03-08T09:31:25.723Z,100017.01
2019-03-08T09:34:12.292Z,100017.72
2019-03-08T09:36:42.897Z,100004.30
2019-03-08T09:39:13.139Z,100018.44
2019-03-08T09:41:49.530Z,100012.03
2019-03-08T09:44:31.769Z,100022.23
2019-03-08T09:47:08.030Z,100022.62
2019-03-08T09:49:47.303Z,100036.80
2019-03-08T09:52:29.993Z,100048.38
2019-03-08T09:55:06.189Z,100073.92
2019-03-08T09:57:36.605Z,100087.70
2019-03-08T10:00:27.607Z,100108.55
2019-03-08T10:03:03.816Z,100103.53
2019-03-08T10:05:34.268Z,100107.64
2019-03-08T10:08:19.773Z,100112.42
2019-03-08T10:10:59.179Z,100109.55
2019-03-08T10:13:32.582Z,100123.52
2019-03-08T10:16:02.879Z,100116.39
2019-03-08T10:18:35.468Z,100115.00
2019-03-08T10:21:11.728Z,100117.22
2019-03-08T10:23:55.322Z,100121.17
2019-03-08T10:26:37.419Z,100124.74
2019-03-08T10:29:07.587Z,100128.05
2019-03-08T10:31:40.552Z,100130.53
2019-03-08T10:34:11.464Z,100131.59
2019-03-08T10:36:58.766Z,100136.98
2019-03-08T10:39:41.310Z,100146.70
2019-03-08T10:42:14.121Z,100146.09
2019-03-08T10:44:47.091Z,100151.64
2019-03-08T10:47:20.321Z,100166.86
2019-03-08T10:49:55.158Z,100163.95
2019-03-08T10:52:31.745Z,100177.10
2019-03-08T10:55:04.688Z,100170.73
2019-03-08T10:57:37.664Z,100184.94
2019-03-08T11:00:31.796Z,100190.73
2019-03-08T11:03:13.759Z,100185.36
2019-03-08T11:05:49.639Z,100191.23
2019-03-08T11:08:29.599Z,100193.73
2019-03-08T11:11:06.439Z,100202.32
2019-03-08T11:13:32.205Z,100194.13
2019-03-08T11:16:02.506Z,100198.02
2019-03-08T11:18:48.045Z,100193.23
2019-03-08T11:21:18.274Z,100186.36
2019-03-08T11:23:57.395Z,100199.72
2019-03-08T11:26:29.963Z,100203.24
2019-03-08T11:29:00.492Z,100214.63
2019-03-08T11:31:45.499Z,100210.70
2019-03-08T11:34:15.791Z,100221.23
2019-03-08T11:36:55.186Z,100226.08
2019-03-08T11:39:42.146Z,100229.56
2019-03-08T11:42:12.323Z,100229.05
2019-03-08T11:44:58.018Z,100234.44
2019-03-08T11:47:43.559Z,100231.77
2019-03-08T11:50:30.388Z,100237.75
2019-03-08T11:53:17.176Z,100227.43
2019-03-08T11:56:03.867Z,100222.11
2019-03-08T11:58:46.092Z,100221.08
2019-03-08T12:01:22.406Z,100233.54
2019-03-08T12:04:01.476Z,100240.13
2019-03-08T12:06:43.379Z,100241.98
2019-03-08T12:09:22.328Z,100249.99
2019-03-08T12:11:52.595Z,100253.80
2019-03-08T12:14:28.480Z,100265.53
2019-03-08T12:17:14.933Z,100265.34
2019-03-08T12:19:47.967Z,100273.16
2019-03-08T12:22:34.188Z,100269.78
2019-03-08T12:25:04.421Z,100270.48
2019-03-08T12:27:37.825Z,100274.56
2019-03-08T12:30:16.750Z,100273.77
2019-03-08T12:32:49.999Z,100273.66
2019-03-08T12:35:36.531Z,100282.55
2019-03-08T12:38:06.791Z,100278.90
2019-03-08T12:40:39.988Z,100286.72
2019-03-08T12:43:10.507Z,100283.08
2019-03-08T12:45:43.903Z,100284.34
2019-03-08T12:48:24.169Z,100279.14
2019-03-08T12:51:11.015Z,100279.98
2019-03-08T12:53:59.644Z,100277.90
2019-03-08T12:56:29.821Z,100281.28
2019-03-08T12:59:02.827Z,100289.21
2019-03-08T13:01:38.864Z,100281.34
2019-03-08T13:04:09.152Z,100277.55
2019-03-08T13:06:39.393Z,100292.58
2019-03-08T13:09:15.508Z,100289.22
2019-03-08T13:11:44.062Z,100289.10
2019-03-08T13:14:12.655Z,100284.77
2019-03-08T13:16:41.541Z,100286.72
2019-03-08T13:19:10.405Z,100285.23
2019-03-08T13:21:38.998Z,100280.62
2019-03-08T13:24:07.894Z,100283.05
2019-03-08T13:26:36.419Z,100280.52
2019-03-08T13:29:05.033Z,100279.05
2019-03-08T13:31:33.621Z,100278.93
2019-03-08T13:34:02.246Z,100279.39
2019-03-08T13:36:30.867Z,100282.18
2019-03-08T13:38:59.553Z,100277.64
2019-03-08T13:41:28.143Z,100281.61
2019-03-08T13:43:56.675Z,100287.89
2019-03-08T13:46:25.204Z,100278.03
2019-03-08T13:48:53.734Z,100280.20
2019-03-08T13:51:22.215Z,100283.70
2019-03-08T13:53:50.748Z,100297.64
2019-03-08T13:56:19.347Z,100290.95
2019-03-08T13:58:47.980Z,100295.22
2019-03-08T14:01:16.766Z,100289.22
2019-03-08T14:03:45.368Z,100286.61
2019-03-08T14:06:13.968Z,100292.58
2019-03-08T14:08:42.680Z,100282.81
2019-03-08T14:11:11.302Z,100283.88
2019-03-08T14:13:39.831Z,100283.00
2019-03-08T14:16:08.459Z,100285.95
2019-03-08T14:18:37.064Z,100300.58
2019-03-08T14:21:05.876Z,100296.37
2019-03-08T14:23:34.752Z,100289.33
2019-03-08T14:26:03.366Z,100291.67
2019-03-08T14:28:31.968Z,100285.95
2019-03-08T14:31:12.516Z,100282.92
2019-03-08T14:33:41.173Z,100286.94
2019-03-08T14:36:10.248Z,100284.75
2019-03-08T14:38:39.058Z,100291.42
2019-03-08T14:41:12.244Z,100288.36
2019-03-08T14:43:42.413Z,100289.68
2019-03-08T14:46:17.263Z,100293.92
2019-03-08T14:48:46.584Z,100299.19
2019-03-08T14:51:15.981Z,100297.96
2019-03-08T14:53:44.625Z,100301.98
2019-03-08T14:56:13.380Z,100314.02
2019-03-08T14:58:41.963Z,100315.84
2019-03-08T15:01:10.843Z,100319.28
2019-03-08T15:03:43.777Z,100320.00
2019-03-08T15:06:09.937Z,100325.59
2019-03-08T15:08:38.463Z,100323.53
2019-03-08T15:11:07.844Z,100310.87
2019-03-08T15:13:36.477Z,100317.08
2019-03-08T15:16:05.148Z,100313.80
2019-03-08T15:18:33.847Z,100316.95
2019-03-08T15:21:02.474Z,100319.88
2019-03-08T15:23:31.068Z,100313.80
2019-03-08T15:25:59.667Z,100312.94
2019-03-08T15:28:28.280Z,100324.73
2019-03-08T15:30:57.723Z,100317.19
2019-03-08T15:33:26.477Z,100317.19
2019-03-08T15:35:55.078Z,100320.00
2019-03-08T15:38:23.827Z,100316.95
2019-03-08T15:40:52.423Z,100312.70
2019-03-08T15:43:20.953Z,100318.67
2019-03-08T15:45:49.686Z,100328.17
2019-03-08T15:48:18.221Z,100325.84
2019-03-08T15:50:48.054Z,100329.23
2019-03-08T15:53:16.681Z,100324.74
2019-03-08T15:55:52.564Z,100320.87
2019-03-08T15:58:15.788Z,100328.52
2019-03-08T16:00:44.389Z,100327.92
2019-03-08T16:03:13.010Z,100329.60
2019-03-08T16:05:41.611Z,100322.44
2019-03-08T16:08:10.628Z,100328.40
2019-03-08T16:10:39.231Z,100324.72
2019-03-08T16:13:07.845Z,100325.81
2019-03-08T16:15:36.434Z,100318.89
2019-03-08T16:18:05.134Z,100318.03
2019-03-08T16:20:37.357Z,100316.70
2019-03-08T16:23:06.534Z,100313.06
2019-03-08T16:25:34.566Z,100314.78
2019-03-08T16:28:03.264Z,100308.09
2019-03-08T16:30:38.924Z,100310.77
2019-03-08T16:33:15.012Z,100308.09
2019-03-08T16:35:45.483Z,100304.91
2019-03-08T16:38:33.241Z,100299.22
2019-03-08T16:41:06.556Z,100297.89
2019-03-08T16:43:36.682Z,100296.78
2019-03-08T16:46:23.163Z,100295.83
2019-03-08T16:48:53.166Z,100288.63
2019-03-08T16:51:25.667Z,100286.58
2019-03-08T16:53:58.476Z,100290.10
2019-03-08T16:56:34.515Z,100290.96
2019-03-08T16:59:04.758Z,100283.52
2019-03-08T17:01:37.925Z,100285.85
2019-03-08T17:04:11.542Z,100287.19
2019-03-08T17:06:44.749Z,100290.09
2019-03-08T17:09:24.471Z,100287.66
2019-03-08T17:12:03.987Z,100289.23
2019-03-08T17:14:34.305Z,100295.05
2019-03-08T17:17:17.025Z,100295.67
2019-03-08T17:20:03.689Z,100293.48
2019-03-08T17:22:33.859Z,100286.31
2019-03-08T17:25:10.032Z,100290.80
2019-03-08T17:27:40.266Z,100297.95
2019-03-08T17:30:13.528Z,100286.55
2019-03-08T17:32:43.940Z,100290.20
2019-03-08T17:35:23.274Z,100290.44
2019-03-08T17:37:53.537Z,100291.02
2019-03-08T17:40:23.818Z,100285.94
2019-03-08T17:42:56.551Z,100291.86
2019-03-08T17:45:36.079Z,100294.53
2019-03-08T17:48:12.806Z,100305.45
2019-03-08T17:50:43.109Z,100301.33
2019-03-08T17:53:29.412Z,100303.28
2019-03-08T17:56:11.642Z,100298.03
2019-03-08T17:58:44.604Z,100302.52
2019-03-08T18:01:14.771Z,100302.66
2019-03-08T18:03:48.012Z,100304.47
2019-03-08T18:06:18.112Z,100301.07
2019-03-08T18:08:53.872Z,100291.34
2019-03-08T18:11:27.135Z,100291.95
2019-03-08T18:14:03.192Z,100291.95
2019-03-08T18:16:48.571Z,100291.09
2019-03-08T18:19:24.340Z,100287.56
2019-03-08T18:22:00.143Z,100283.08
2019-03-08T18:24:42.172Z,100285.14
2019-03-08T18:27:15.405Z,100292.58
2019-03-08T18:29:55.213Z,100284.44
2019-03-08T18:32:31.542Z,100269.99
2019-03-08T18:35:16.800Z,100272.91
2019-03-08T18:38:02.228Z,100268.29
2019-03-08T18:40:38.092Z,100274.73
2019-03-08T18:43:11.229Z,100271.83
2019-03-08T18:45:56.502Z,100266.25
2019-03-08T18:48:41.930Z,100266.97
2019-03-08T18:51:27.129Z,100279.00
2019-03-08T18:54:13.393Z,100270.41
2019-03-08T18:56:56.780Z,100263.72
2019-03-08T18:59:27.298Z,100259.95
2019-03-08T19:02:00.254Z,100266.50
2019-03-08T19:04:33.216Z,100273.56
2019-03-08T19:07:15.629Z,100281.92
2019-03-08T19:09:45.885Z,100281.33
2019-03-08T19:12:25.206Z,100270.15
2019-03-08T19:14:55.498Z,100265.36
2019-03-08T19:17:44.125Z,100281.22
2019-03-08T19:20:14.360Z,100274.05
2019-03-08T19:22:47.061Z,100268.58
2019-03-08T19:25:32.620Z,100274.63
2019-03-08T19:28:08.877Z,100274.76
2019-03-08T19:30:44.922Z,100273.78
2019-03-08T19:33:15.416Z,100279.45
2019-03-08T19:35:46.053Z,100279.45
2019-03-08T19:38:31.840Z,100281.77
2019-03-08T19:41:08.508Z,100278.72
2019-03-08T19:43:58.181Z,100277.01
2019-03-08T19:46:32.253Z,100271.80
2019-03-08T19:49:05.964Z,100270.70
2019-03-08T19:51:52.979Z,100270.31
2019-03-08T19:54:26.973Z,100272.50
2019-03-08T19:57:00.592Z,100274.70
2019-03-08T19:59:46.878Z,100272.98
2019-03-08T20:02:26.985Z,100263.55
2019-03-08T20:04:58.184Z,100255.05
2019-03-08T20:07:29.951Z,100255.78
2019-03-08T20:10:16.551Z,100257.59
2019-03-08T20:13:05.686Z,100246.44
2019-03-08T20:15:36.417Z,100244.25
2019-03-08T20:18:17.722Z,100248.25
2019-03-08T20:20:48.319Z,100242.56
2019-03-08T20:23:35.447Z,100236.84
2019-03-08T20:26:05.973Z,100232.12
2019-03-08T20:28:37.137Z,100226.40
2019-03-08T20:31:20.673Z,100236.13
2019-03-08T20:33:51.695Z,100242.19
2019-03-08T20:36:40.882Z,100232.23
2019-03-08T20:39:15.910Z,100220.13
2019-03-08T20:42:02.289Z,100217.33
2019-03-08T20:44:36.400Z,100211.51
2019-03-08T20:47:07.731Z,100206.78
2019-03-08T20:49:37.398Z,100210.41
2019-03-08T20:52:07.325Z,100204.34
2019-03-08T20:54:37.101Z,100201.29
2019-03-08T20:57:06.953Z,100195.85
2019-03-08T20:59:36.706Z,100193.53
2019-03-08T21:02:06.948Z,100189.05
2019-03-08T21:04:36.948Z,100191.48
2019-03-08T21:07:06.946Z,100191.73
2019-03-08T21:09:36.501Z,100190.77
2019-03-08T21:12:06.364Z,100189.06
2019-03-08T21:14:36.312Z,100185.44
2019-03-08T21:17:06.260Z,100178.38
2019-03-08T21:19:35.983Z,100177.66
2019-03-08T21:22:05.704Z,100169.99
2019-03-08T21:24:35.040Z,100175.33
2019-03-08T21:27:04.472Z,100169.41
2019-03-08T21:29:33.805Z,100163.22
2019-03-08T21:32:02.893Z,100169.76
2019-03-08T21:34:31.655Z,100159.08
2019-03-08T21:37:00.889Z,100163.09
2019-03-08T21:39:29.754Z,100156.89
2019-03-08T21:41:58.767Z,100147.06
2019-03-08T21:44:28.397Z,100145.98
2019-03-08T21:46:57.210Z,100149.88
2019-03-08T21:49:25.970Z,100138.59
2019-03-08T21:51:54.932Z,100132.88
2019-03-08T21:54:23.991Z,100133.62
2019-03-08T21:56:52.727Z,100124.28
2019-03-08T21:59:21.538Z,100121.47
2019-03-08T22:01:50.913Z,100123.19
2019-03-08T22:04:21.200Z,100112.98
2019-03-08T22:06:49.820Z,100101.34
2019-03-08T22:09:20.085Z,100099.64
2019-03-08T22:11:48.989Z,100091.25
2019-03-08T22:14:17.472Z,100091.48
2019-03-08T22:16:46.085Z,100069.03
2019-03-08T22:19:14.667Z,100071.97
2019-03-08T22:21:43.309Z,100067.83
2019-03-08T22:24:13.623Z,100054.63
2019-03-08T22:26:42.599Z,100046.95
2019-03-08T22:29:11.201Z,100047.95
2019-03-08T22:31:39.661Z,100043.56
2019-03-08T22:34:08.277Z,100045.38
2019-03-08T22:36:36.808Z,100031.93
2019-03-08T22:39:07.118Z,100035.31
2019-03-08T22:41:35.677Z,100030.83
2019-03-08T22:44:04.476Z,100030.08
2019-03-08T22:46:33.006Z,100042.23
2019-03-08T22:49:01.650Z,100021.72
2019-03-08T22:51:30.464Z,100032.50
2019-03-08T22:53:59.107Z,100027.91
2019-03-08T22:56:27.900Z,100018.56
2019-03-08T22:58:56.523Z,100024.63
2019-03-08T23:01:26.845Z,100031.67
2019-03-08T23:03:55.454Z,100024.14
2019-03-08T23:06:24.251Z,100007.98
2019-03-08T23:08:52.852Z,100015.91
2019-03-08T23:11:21.444Z,100011.53
2019-03-08T23:13:50.036Z,100024.16
2019-03-08T23:16:18.608Z,100020.02
2019-03-08T23:18:47.198Z,100019.68
2019-03-08T23:21:15.795Z,100016.87
2019-03-08T23:23:44.512Z,100008.62
2019-03-08T23:26:12.975Z,100003.91
2019-03-08T23:28:43.180Z,99993.09
2019-03-08T23:31:22.494Z,99989.47
2019-03-08T23:33:51.115Z,99983.52
2019-03-08T23:36:19.836Z,99981.70
2019-03-08T23:38:48.306Z,99969.94
2019-03-08T23:41:16.997Z,99956.84
2019-03-08T23:43:45.713Z,99954.78
2019-03-08T23:46:14.322Z,99951.40
2019-03-08T23:48:43.855Z,99952.59
2019-03-08T23:51:12.453Z,99937.20
2019-03-08T23:53:41.057Z,99930.88
2019-03-08T23:56:09.745Z,99925.55
2019-03-08T23:58:38.297Z,99919.97
